New Orleans, Louisiana
Traffic Map
Current Weather Conditions
New Orleans, Louisiana
Clear
Clear
32°
Feels Like: 33°
Wind Chill: 32° Ceiling: Unl
Heat Index: 33° Visibility: 10mi
Dew Point: 19° Wind: 5mph
Humidity: 46% Direction: 30° (NNE)
Pressure: 30.05in Gusts: 0mph
Raw Report DataKNEW 282153Z 03004KT 10SM CLR 32/19 A3005 RMK AO2 SLP169 T03170189
Traffic Incident Summary
Active as of:
Severity:
Category:
InformationThere was an issue retrieving the traffic information for this location. Please try a different location or try again shortly.
Advertisements
Track Severe Weather on mobile